Latest Weather Observations for Cobar

IDN60801

Issued at 10:35 am EDT Saturday 29 November 2014 (issued every 30 minutes, with the page automatically refreshed every 10 minutes)

About weather observations | Map of weather stations | Latest weather observations for NSW | Other Formats
Station Details ID: 048027 Name: COBAR MO Lat: -31.48 Lon: 145.83 Height: 260.0 m
Data from the previous 72 hours. | See also: Recent months at Cobar
Date/Time
EDT
Temp
°C
App
Temp
°C
Dew
Point
Rel
Hum
%
Delta-T
°C
Wind Press
QNH
hPa
Press
MSL
hPa
Rain
since 9 am
mm
Dir
 
Spd
km/h
Gust
km/h
Spd
kts
Gust
kts
29/10:30am 29.8 24.9 12.5 34 10.3 NNE 30 44 16 24 1014.1 - 0.0
29/10:00am 28.8 23.8 12.1 35 9.8 NNE 30 43 16 23 1014.3 - 0.0
29/09:30am 27.6 22.6 12.2 38 9.0 NNE 30 46 16 25 1014.5 - 0.0
29/09:00am 26.7 21.7 12.1 40 8.5 NNE 30 46 16 25 1014.6 1013.5 0.0
29/08:30am 26.1 20.9 11.7 40 8.3 NNE 30 39 16 21 1014.5 - 0.0
29/08:00am 25.3 20.5 11.5 42 7.9 NNE 28 37 15 20 1014.5 - 0.0
29/07:30am 24.6 19.7 11.2 43 7.6 NNE 28 44 15 24 1014.3 - 0.0
29/07:00am 23.9 19.1 11.6 46 7.0 NNE 28 41 15 22 1014.1 - 0.0
29/06:30am 24.0 19.6 11.8 46 7.0 NNE 26 37 14 20 1013.8 - 0.0
29/06:00am 24.2 20.0 9.7 39 8.0 NE 22 32 12 17 1013.3 1012.1 0.0
29/05:30am 24.5 20.1 9.0 37 8.5 NE 22 32 12 17 1012.9 - 0.0
29/05:00am 24.4 19.7 7.8 34 8.9 ENE 22 30 12 16 1012.6 - 0.0
29/04:30am 24.2 19.6 6.6 32 9.2 ENE 20 28 11 15 1012.6 - 0.0
29/04:00am 24.7 19.6 6.0 30 9.7 ENE 22 30 12 16 1012.4 - 0.0
29/03:30am 25.2 19.2 5.1 27 10.3 ENE 26 35 14 19 1012.4 - 0.0
29/03:00am 25.7 19.8 4.1 24 10.9 ENE 24 35 13 19 1012.3 1011.2 0.0
29/02:30am 25.9 20.7 3.5 23 11.2 ENE 20 30 11 16 1012.4 - 0.0
29/02:00am 25.2 20.6 3.9 25 10.7 E 17 20 9 11 1012.8 - 0.0
29/01:30am 25.8 21.6 3.7 24 11.1 E 15 19 8 10 1013.1 - 0.0
29/01:00am 26.2 21.5 3.4 23 11.4 ENE 17 19 9 10 1013.2 - 0.0
29/12:30am 26.0 21.4 3.7 23 11.2 E 17 20 9 11 1013.6 - 0.0
29/12:00am 25.9 22.2 4.2 24 11.0 E 13 17 7 9 1013.7 1012.6 0.0
 
Date/Time
EDT
Temp
°C
App
Temp
°C
Dew
Point
Rel
Hum
%
Delta-T
°C
Wind Press
QNH
hPa
Press
MSL
hPa
Rain
since 9 am
mm
Dir
 
Spd
km/h
Gust
km/h
Spd
kts
Gust
kts
28/11:30pm 26.7 22.6 4.1 23 11.5 E 15 17 8 9 1013.8 - 0.0
28/11:00pm 26.9 23.2 4.4 23 11.5 E 13 17 7 9 1013.8 - 0.0
28/10:30pm 27.3 23.7 4.9 24 11.6 E 13 17 7 9 1013.7 - 0.0
28/10:00pm 27.8 24.2 4.8 23 11.9 E 13 15 7 8 1013.7 - 0.0
28/09:30pm 27.8 24.6 4.9 23 11.9 E 11 15 6 8 1013.4 - 0.0
28/09:00pm 28.5 25.8 5.5 23 12.1 E 9 13 5 7 1013.1 1011.9 0.0
28/08:30pm 29.6 27.0 6.0 22 12.6 E 9 11 5 6 1013.0 - 0.0
28/08:00pm 31.0 27.3 4.2 18 14.0 E 13 19 7 10 1012.7 - 0.0
28/07:30pm 31.9 27.6 3.3 16 14.8 E 15 22 8 12 1012.7 - 0.0
28/07:00pm 32.5 28.3 3.6 16 15.1 ESE 15 20 8 11 1012.7 - 0.0
28/06:30pm 33.1 27.9 2.7 14 15.7 ESE 19 28 10 15 1012.6 - 0.0
28/06:00pm 33.2 30.0 3.3 15 15.6 N 9 15 5 8 1012.4 1011.3 0.0
28/05:30pm 32.7 28.6 2.5 15 15.5 NNE 13 17 7 9 1012.7 - 0.0
28/05:00pm 33.1 27.7 2.7 14 15.7 ENE 20 28 11 15 1013.0 - 0.0
28/04:30pm 32.9 28.9 2.6 14 15.6 SE 13 19 7 10 1013.3 - 0.0
28/04:00pm 32.0 29.1 4.6 18 14.5 N 9 17 5 9 1013.8 - 0.0
28/03:30pm 33.6 29.6 2.7 14 16.0 ENE 13 20 7 11 1014.0 - 0.0
28/03:00pm 31.8 28.5 4.8 18 14.3 ENE 11 19 6 10 1014.4 1013.3 0.0
28/02:30pm 32.4 27.9 4.4 17 14.8 E 17 24 9 13 1014.9 - 0.0
28/02:00pm 30.6 26.0 6.6 22 13.0 E 20 30 11 16 1015.5 - 0.0
28/01:30pm 30.6 26.5 6.3 21 13.1 ENE 17 28 9 15 1016.0 - 0.0
28/01:00pm 31.7 28.3 9.2 25 12.8 ENE 17 26 9 14 1016.6 - 0.0
28/12:30pm 30.4 27.3 10.2 28 11.6 ENE 17 28 9 15 1017.0 - 0.0
28/12:00pm 29.8 26.8 10.7 30 11.0 ENE 17 32 9 17 1017.3 1016.2 0.0
28/11:30am 28.7 25.2 10.8 33 10.3 ENE 20 28 11 15 1017.7 - 0.0
28/11:00am 27.6 24.4 11.1 35 9.5 NE 19 30 10 16 1017.9 - 0.0
28/10:30am 26.7 22.8 10.7 36 9.1 ENE 22 35 12 19 1018.1 - 0.0
28/10:00am 25.4 20.9 11.4 41 8.0 ENE 26 33 14 18 1018.1 - 0.0
28/09:30am 24.6 20.0 11.2 43 7.6 ENE 26 35 14 19 1018.2 - 0.0
28/09:00am 24.0 19.0 11.1 44 7.3 ENE 28 37 15 20 1018.2 1017.1 0.0
28/08:30am 22.9 18.6 10.7 46 6.8 ENE 24 33 13 18 1018.1 - 0.0
28/08:00am 21.7 17.1 11.1 51 5.9 ENE 26 39 14 21 1017.8 - 0.0
28/07:30am 21.1 17.7 11.3 53 5.5 E 20 33 11 18 1017.6 - 0.0
28/07:00am 19.8 16.0 11.3 58 4.7 E 22 32 12 17 1017.2 - 0.0
28/06:30am 19.2 16.1 11.5 61 4.3 E 19 28 10 15 1017.1 - 0.0
28/06:00am 19.2 16.0 11.2 60 4.4 E 19 28 10 15 1016.8 1015.7 0.0
28/05:30am 19.6 16.4 11.1 58 4.7 E 19 28 10 15 1016.4 - 0.0
28/05:00am 20.2 16.6 10.5 53 5.3 E 20 28 11 15 1016.2 - 0.0
28/04:30am 20.8 17.2 10.4 51 5.7 E 20 28 11 15 1016.0 - 0.0
28/04:00am 21.0 17.7 9.6 48 6.2 E 17 24 9 13 1016.0 - 0.0
28/03:30am 21.2 17.4 4.0 32 8.4 E 13 19 7 10 1016.1 - 0.0
28/03:00am 21.4 17.1 1.1 26 9.4 ESE 13 17 7 9 1016.1 1015.0 0.0
28/02:30am 21.6 17.5 -0.4 23 9.9 SSE 11 15 6 8 1016.1 - 0.0
28/02:00am 22.5 17.9 -1.3 20 10.6 SSE 13 17 7 9 1016.3 - 0.0
28/01:30am 22.3 18.6 -0.1 22 10.2 S 9 13 5 7 1016.1 - 0.0
28/01:00am 22.8 19.1 0.2 22 10.4 S 9 13 5 7 1016.3 - 0.0
28/12:30am 23.5 19.8 0.1 21 10.8 S 9 13 5 7 1016.6 - 0.0
28/12:00am 24.3 20.1 -0.6 19 11.4 S 11 17 6 9 1016.8 1015.7 0.0
 
Date/Time
EDT
Temp
°C
App
Temp
°C
Dew
Point
Rel
Hum
%
Delta-T
°C
Wind Press
QNH
hPa
Press
MSL
hPa
Rain
since 9 am
mm
Dir
 
Spd
km/h
Gust
km/h
Spd
kts
Gust
kts
27/11:30pm 24.9 20.4 0.0 19 11.6 S 13 17 7 9 1016.8 - 0.0
27/11:00pm 25.5 21.0 -0.3 18 12.0 S 13 19 7 10 1016.8 - 0.0
27/10:30pm 25.8 21.8 0.4 19 12.0 S 11 17 6 9 1016.7 - 0.0
27/10:00pm 26.1 22.1 0.2 18 12.2 S 11 17 6 9 1016.6 - 0.0
27/09:30pm 26.6 22.5 -0.2 17 12.6 S 11 15 6 8 1016.3 - 0.0
27/09:00pm 27.1 23.4 -0.3 16 12.9 S 9 13 5 7 1016.0 1014.9 0.0
27/08:30pm 28.0 24.2 -0.7 15 13.5 S 9 11 5 6 1015.9 - 0.0
27/08:00pm 29.3 25.0 -1.8 13 14.5 S 11 17 6 9 1015.6 - 0.0
27/07:30pm 30.4 25.5 -3.2 11 15.4 S 13 22 7 12 1015.5 - 0.0
27/07:00pm 31.0 26.1 -3.4 10 15.8 S 13 28 7 15 1015.3 - 0.0
27/06:30pm 31.3 26.5 -2.5 11 15.8 S 13 22 7 12 1015.1 - 0.0
27/06:00pm 31.8 26.2 -3.1 10 16.2 S 17 22 9 12 1015.1 1014.0 0.0
27/05:30pm 31.0 25.2 -4.5 10 16.0 SSE 17 28 9 15 1015.2 - 0.0
27/05:00pm 31.2 26.1 -1.8 12 15.6 S 15 22 8 12 1015.2 - 0.0
27/04:30pm 31.1 25.0 -7.3 8 16.5 S 17 28 9 15 1015.5 - 0.0
27/04:00pm 31.4 25.2 -5.0 9 16.3 SSW 19 24 10 13 1016.0 - 0.0
27/03:30pm 30.9 24.1 -4.9 9 16.0 SSW 22 28 12 15 1016.3 - 0.0
27/03:00pm 30.6 24.9 -3.6 10 15.6 SSE 17 30 9 16 1016.7 1015.5 0.0
27/02:30pm 30.0 24.2 -5.0 10 15.5 S 17 28 9 15 1017.1 - 0.0
27/02:00pm 29.6 24.2 -1.6 13 14.6 SSW 17 30 9 16 1017.5 - 0.0
27/01:30pm 29.4 23.2 -4.7 10 15.1 SE 19 28 10 15 1017.8 - 0.0
27/01:00pm 28.8 23.7 -1.9 13 14.2 S 15 30 8 16 1018.2 - 0.0
27/12:30pm 28.2 23.7 -0.3 15 13.5 S 13 20 7 11 1018.5 - 0.0
27/12:00pm 28.2 23.3 -0.3 15 13.5 SSE 15 26 8 14 1019.0 1017.9 0.0
27/11:30am 27.4 23.6 -0.5 16 13.1 SSE 9 19 5 10 1019.3 - 0.0
27/11:00am 26.4 21.6 0.0 17 12.4 S 15 24 8 13 1019.5 - 0.0
27/10:30am 25.7 20.6 0.9 19 11.8 S 17 28 9 15 1019.5 - 0.0
27/10:00am 25.4 20.0 1.0 20 11.6 SE 19 24 10 13 1019.6 - 0.0
27/09:30am 25.0 20.0 1.6 21 11.2 SE 17 26 9 14 1019.7 - 0.0
27/09:00am 23.0 19.0 2.6 26 9.8 SSE 13 19 7 10 1019.7 1018.6 0.0
27/08:30am 21.9 17.0 2.0 27 9.4 SSE 17 22 9 12 1019.5 - 0.0
27/08:00am 20.6 15.3 2.0 29 8.7 SSE 19 26 10 14 1019.3 - 0.0
27/07:30am 19.7 16.3 1.7 30 8.3 SSE 9 19 5 10 1019.0 - 0.0
27/07:00am 17.8 14.3 1.1 32 7.5 SSE 9 11 5 6 1018.7 - 0.0
27/06:30am 16.3 13.1 0.9 35 6.8 S 7 11 4 6 1018.5 - 0.0
27/06:00am 16.1 12.5 0.9 35 6.7 S 9 11 5 6 1018.2 1017.1 0.0
27/05:30am 16.8 13.3 1.1 34 7.0 S 9 13 5 7 1017.9 - 0.0
27/05:00am 17.2 13.6 0.7 33 7.3 S 9 13 5 7 1017.5 - 0.0
27/04:30am 17.3 13.7 0.6 32 7.4 S 9 13 5 7 1017.2 - 0.0
27/04:00am 17.4 13.7 0.0 31 7.6 S 9 13 5 7 1017.0 - 0.0
27/03:30am 18.1 14.0 -0.5 28 8.1 S 11 15 6 8 1017.0 - 0.0
27/03:00am 18.2 14.5 0.1 29 8.0 S 9 11 5 6 1016.9 1015.8 0.0
27/02:30am 18.8 15.1 -0.3 27 8.4 S 9 13 5 7 1017.1 - 0.0
27/02:00am 19.3 15.6 -0.1 27 8.6 S 9 11 5 6 1017.2 - 0.0
27/01:30am 19.6 15.9 -0.2 26 8.8 S 9 13 5 7 1017.5 - 0.0
27/01:00am 20.3 16.5 -0.8 24 9.3 S 9 13 5 7 1017.7 - 0.0
27/12:30am 20.9 16.6 -1.5 22 9.8 S 11 15 6 8 1017.9 - 0.0
27/12:00am 21.2 17.3 -1.3 22 9.9 S 9 13 5 7 1018.2 1017.1 0.0
 
Date/Time
EDT
Temp
°C
App
Temp
°C
Dew
Point
Rel
Hum
%
Delta-T
°C
Wind Press
QNH
hPa
Press
MSL
hPa
Rain
since 9 am
mm
Dir
 
Spd
km/h
Gust
km/h
Spd
kts
Gust
kts
26/11:30pm 22.1 17.3 -2.2 19 10.6 S 13 17 7 9 1018.3 - 0.0
26/11:00pm 22.9 18.2 -2.1 19 11.0 S 13 19 7 10 1018.2 - 0.0
26/10:30pm 23.1 18.7 -2.1 18 11.1 S 11 13 6 7 1018.0 - 0.0
26/10:00pm 24.1 20.1 -2.4 17 11.7 S 9 13 5 7 1017.8 - 0.0
26/09:30pm 24.7 20.9 -0.9 18 11.7 S 9 11 5 6 1017.4 - 0.0
26/09:00pm 25.7 21.2 -3.4 14 12.8 S 11 17 6 9 1017.1 1016.0 0.0
26/08:30pm 26.3 21.4 -3.3 14 13.1 S 13 19 7 10 1016.8 - 0.0
26/08:00pm 27.3 21.5 -4.5 12 13.9 S 17 24 9 13 1016.6 - 0.0
26/07:30pm 28.4 21.8 -6.8 9 14.9 SSW 20 26 11 14 1016.1 - 0.0
26/07:00pm 28.9 22.4 -7.5 9 15.3 SSW 19 28 10 15 1015.7 - 0.0
26/06:30pm 29.5 23.0 -8.0 8 15.7 SSW 19 26 10 14 1015.5 - 0.0
26/06:00pm 30.2 24.6 -6.7 8 15.9 SSW 15 22 8 12 1015.5 1014.4 0.0
26/05:30pm 29.7 24.2 -5.4 10 15.4 S 15 24 8 13 1015.5 - 0.0
26/05:00pm 29.9 23.3 -9.2 7 16.1 SW 19 26 10 14 1015.6 - 0.0
26/04:30pm 30.2 23.4 -8.8 7 16.2 S 20 28 11 15 1015.8 - 0.0
26/04:00pm 30.1 23.8 -10.0 7 16.3 WSW 17 22 9 12 1016.1 - 0.0
26/03:30pm 29.2 22.7 -12.5 6 16.1 SSE 17 28 9 15 1016.2 - 0.0
26/03:00pm 29.5 22.8 -8.0 8 15.7 SW 20 28 11 15 1016.9 1015.8 0.0
26/02:30pm 29.0 23.5 -10.1 7 15.7 SW 13 24 7 13 1017.1 - 0.0
26/02:00pm 28.7 22.9 -9.1 8 15.4 S 15 26 8 14 1017.2 - 0.0
26/01:30pm 28.2 21.5 -7.6 9 14.9 SSW 20 28 11 15 1017.7 - 0.0
26/01:00pm 27.3 23.2 -3.0 13 13.6 S 9 20 5 11 1018.0 - 0.0
26/12:30pm 27.3 22.3 -4.6 12 13.9 WSW 13 24 7 13 1018.5 - 0.0
26/12:00pm 26.9 21.6 -3.7 13 13.5 WSW 15 28 8 15 1018.7 1017.6 0.0
26/11:30am 26.1 20.3 -4.4 13 13.2 SSW 17 28 9 15 1019.1 - 0.0
26/11:00am 25.4 20.5 -3.3 15 12.6 S 13 19 7 10 1019.1 - 0.0

Other Formats:

Comma delimited format used in spreadsheet applications
http://www.bom.gov.au/fwo/IDN60801/IDN60801.94711.axf

JavaScript Object Notation format (JSON) in row-major order
http://www.bom.gov.au/fwo/IDN60801/IDN60801.94711.json